South Molton, United Kingdom
Current Conditions -  °F | °C
As of 7:50 PM on Wednesday 17 Dec 2014 (Local Time) from EGTE Reporting Station
Drizzle Drizzle  
Wind Chill: 12°   Ceiling: 1200
Heat Index: 12°   Visibility: 5mi
Dew Point: 11°   Wind: 16mph
Humidity: 94%   Direction: 270°W
Pressure: 29.85"   Gusts: NA
Location:  51.02°N, 3.83°W
Report Text: EGTE 171950Z 27014KT 8000 -DZ BKN012 12/11 Q1011
Loading
Personal Weather Stations






























Interactive Weather Map New forecast layout! Learn more

10-Day Weather Forecast

Advertisements
Track Severe Weather on mobile